Time;durP1;ratioP1;P1;durP2;ratioP2;P2;SDS_P1;SDS_P2;PMS_P1;PMS_P2;Temp;Humidity;BMP_temperature;BMP_pressure;BME280_temperature;BME280_humidity;BME280_pressure;Samples;Min_cycle;Max_cycle;Signal;HPM_P1;HPM_P2
2021/08/18 00:00:43;;;;;;;22.23;19.90;;;16.80;99.90;;;;;;5099864;28;20178;-76
2021/08/18 00:03:09;;;;;;;21.40;18.37;;;16.80;99.90;;;;;;5099351;28;20161;-76
2021/08/18 00:05:36;;;;;;;21.20;19.07;;;16.80;99.90;;;;;;5097792;28;20180;-76
2021/08/18 00:08:02;;;;;;;21.70;19.40;;;16.80;99.90;;;;;;5100179;28;20190;-75
2021/08/18 00:10:29;;;;;;;22.47;19.77;;;16.80;99.90;;;;;;5099920;28;20159;-76
2021/08/18 00:12:56;;;;;;;21.00;18.80;;;16.80;99.90;;;;;;5092682;28;20652;-76
2021/08/18 00:15:26;;;;;;;20.67;18.57;;;16.80;99.90;;;;;;5068996;28;20183;-76
2021/08/18 00:18:07;;;;;;;21.57;19.27;;;16.90;99.90;;;;;;5067938;28;20186;-77
2021/08/18 00:20:37;;;;;;;21.50;19.33;;;16.90;99.90;;;;;;5080916;28;20167;-78
2021/08/18 00:23:06;;;;;;;23.33;19.07;;;16.90;99.90;;;;;;5074963;28;20159;-79
2021/08/18 00:26:06;;;;;;;20.67;18.47;;;16.80;99.90;;;;;;5075122;28;20178;-77
2021/08/18 00:28:32;;;;;;;21.07;18.57;;;16.90;99.90;;;;;;5074385;28;20187;-77
2021/08/18 00:30:57;;;;;;;22.10;19.80;;;16.90;99.90;;;;;;5074332;28;20539;-78
2021/08/18 00:33:23;;;;;;;21.27;19.17;;;17.00;99.90;;;;;;5056593;28;20641;-77
2021/08/18 00:35:48;;;;;;;22.07;19.17;;;16.90;99.90;;;;;;5074506;28;20183;-78
2021/08/18 00:38:14;;;;;;;23.10;19.10;;;16.80;99.90;;;;;;5083942;28;20159;-76
2021/08/18 00:40:40;;;;;;;21.77;19.57;;;16.90;99.90;;;;;;5078941;28;20168;-76
2021/08/18 00:43:06;;;;;;;22.20;19.80;;;17.00;99.90;;;;;;5079664;28;20624;-78
2021/08/18 00:45:31;;;;;;;21.20;19.03;;;17.00;99.90;;;;;;5073427;28;20206;-75
2021/08/18 00:47:58;;;;;;;22.70;20.37;;;17.00;99.90;;;;;;5073825;28;20268;-76
2021/08/18 00:50:26;;;;;;;21.53;19.20;;;17.00;99.90;;;;;;5074208;28;20168;-78
2021/08/18 00:52:54;;;;;;;21.43;19.23;;;16.90;99.90;;;;;;5074112;28;20175;-77
2021/08/18 00:55:20;;;;;;;25.07;21.00;;;16.80;99.90;;;;;;5073928;28;20172;-77
2021/08/18 00:57:46;;;;;;;22.60;20.27;;;16.70;99.90;;;;;;5073853;28;20205;-78
2021/08/18 01:00:14;;;;;;;22.27;20.03;;;16.70;99.90;;;;;;5073766;28;20172;-77
2021/08/18 01:02:45;;;;;;;24.03;21.53;;;16.80;99.90;;;;;;5059404;28;20614;-75
2021/08/18 01:05:17;;;;;;;23.23;20.73;;;16.80;99.90;;;;;;5095739;28;20211;-74
2021/08/18 01:07:44;;;;;;;26.40;21.67;;;16.90;99.90;;;;;;5094267;28;20165;-75
2021/08/18 01:10:13;;;;;;;25.77;22.13;;;16.90;99.90;;;;;;5076044;28;20590;-76
2021/08/18 01:12:40;;;;;;;27.53;22.83;;;16.90;99.90;;;;;;5074921;28;20218;-77
2021/08/18 01:15:11;;;;;;;25.70;22.13;;;16.90;99.90;;;;;;5073317;28;20172;-77
2021/08/18 01:17:48;;;;;;;24.60;22.10;;;16.80;99.90;;;;;;5073174;28;20180;-76
2021/08/18 01:20:19;;;;;;;25.17;22.13;;;16.80;99.90;;;;;;5073581;28;20171;-76
2021/08/18 01:22:45;;;;;;;25.40;22.43;;;16.90;99.90;;;;;;5073375;28;20169;-77
2021/08/18 01:25:12;;;;;;;28.43;23.03;;;16.90;99.90;;;;;;5073339;28;20303;-76
2021/08/18 01:27:46;;;;;;;25.73;22.97;;;16.80;99.90;;;;;;5073227;28;20592;-76
2021/08/18 01:30:12;;;;;;;25.87;23.10;;;16.90;99.90;;;;;;5073223;28;20182;-77
2021/08/18 01:33:02;;;;;;;27.67;23.30;;;16.80;99.90;;;;;;5073258;28;20177;-76
2021/08/18 01:35:49;;;;;;;25.10;22.40;;;16.80;99.90;;;;;;5070515;28;20180;-77
2021/08/18 01:38:18;;;;;;;25.33;22.13;;;16.80;99.90;;;;;;5055687;28;20172;-78
2021/08/18 01:40:47;;;;;;;25.47;21.47;;;16.80;99.90;;;;;;5072921;28;20660;-75
2021/08/18 01:43:12;;;;;;;28.63;22.50;;;16.80;99.90;;;;;;5073134;28;20171;-77
2021/08/18 01:45:41;;;;;;;23.93;21.43;;;16.80;99.90;;;;;;5073332;28;20184;-76
2021/08/18 01:48:08;;;;;;;25.87;21.90;;;16.70;99.90;;;;;;5073212;28;20664;-77
2021/08/18 01:50:34;;;;;;;25.20;21.50;;;16.70;99.90;;;;;;5073216;28;20213;-76
2021/08/18 01:52:59;;;;;;;24.83;22.23;;;16.70;99.90;;;;;;5073017;28;20170;-77
2021/08/18 01:55:25;;;;;;;24.30;21.77;;;16.70;99.90;;;;;;5073009;28;20640;-77
2021/08/18 01:57:56;;;;;;;25.47;22.57;;;16.70;99.90;;;;;;5072896;28;20706;-76
2021/08/18 02:00:22;;;;;;;29.37;23.43;;;16.90;99.90;;;;;;5073071;28;20195;-78
2021/08/18 02:02:47;;;;;;;27.80;24.13;;;16.80;99.90;;;;;;5072931;28;20211;-76
2021/08/18 02:05:13;;;;;;;29.47;24.30;;;16.80;99.90;;;;;;5072942;28;20639;-75
2021/08/18 02:07:39;;;;;;;26.70;23.83;;;17.00;99.90;;;;;;5073040;28;20169;-79
2021/08/18 02:10:14;;;;;;;28.60;25.60;;;17.00;99.90;;;;;;5075153;28;20168;-76
2021/08/18 02:12:41;;;;;;;28.50;25.30;;;16.80;99.90;;;;;;5079146;28;20172;-77
2021/08/18 02:15:11;;;;;;;27.30;23.67;;;16.80;99.90;;;;;;5088884;28;20243;-78
2021/08/18 02:17:36;;;;;;;26.53;23.63;;;16.80;99.90;;;;;;5084940;28;20164;-79
2021/08/18 02:20:04;;;;;;;27.10;24.20;;;16.70;99.90;;;;;;5088719;28;20171;-76
2021/08/18 02:22:30;;;;;;;28.57;25.53;;;16.70;99.90;;;;;;5086884;28;20225;-76
2021/08/18 02:24:56;;;;;;;27.80;24.43;;;16.80;99.90;;;;;;5077452;28;20204;-77
2021/08/18 02:27:21;;;;;;;28.90;25.47;;;16.70;99.90;;;;;;5076301;28;20261;-76
2021/08/18 02:29:47;;;;;;;28.70;25.63;;;16.70;99.90;;;;;;5076822;28;20179;-77
2021/08/18 02:32:13;;;;;;;30.50;26.20;;;16.70;99.90;;;;;;5058471;28;20183;-76
2021/08/18 02:34:38;;;;;;;31.63;26.20;;;16.80;99.90;;;;;;5076835;28;20194;-76
2021/08/18 02:37:04;;;;;;;31.53;25.37;;;16.80;99.90;;;;;;5077030;28;20168;-76
2021/08/18 02:39:30;;;;;;;30.67;25.67;;;16.70;99.90;;;;;;5091112;28;20156;-75
2021/08/18 02:41:56;;;;;;;28.00;24.90;;;16.60;99.90;;;;;;5090318;28;20696;-80
2021/08/18 02:44:21;;;;;;;30.60;25.43;;;16.70;99.90;;;;;;5077191;28;20738;-80
2021/08/18 02:46:47;;;;;;;26.37;23.63;;;16.90;99.90;;;;;;5076369;28;20735;-76
2021/08/18 02:49:15;;;;;;;27.07;24.17;;;16.70;99.90;;;;;;5076325;28;20636;-76
2021/08/18 02:51:41;;;;;;;28.60;23.67;;;16.80;99.90;;;;;;5076554;28;20164;-79
2021/08/18 02:54:07;;;;;;;29.80;25.53;;;16.90;99.90;;;;;;5076381;28;20183;-79
2021/08/18 02:56:33;;;;;;;27.73;23.37;;;16.90;99.90;;;;;;5075934;28;20183;-79
2021/08/18 02:58:58;;;;;;;27.53;23.17;;;16.90;99.90;;;;;;5076383;28;20638;-80
2021/08/18 03:01:24;;;;;;;26.67;23.77;;;16.90;99.90;;;;;;5058157;28;20183;-79
2021/08/18 03:03:49;;;;;;;25.03;22.33;;;16.90;99.90;;;;;;5076329;28;20211;-80
2021/08/18 03:06:15;;;;;;;26.90;22.60;;;17.00;99.90;;;;;;5076059;28;20176;-79
2021/08/18 03:08:41;;;;;;;26.50;22.77;;;17.00;99.90;;;;;;5076094;28;20187;-80
2021/08/18 03:11:06;;;;;;;25.57;22.87;;;17.10;99.90;;;;;;5075953;28;20172;-79
2021/08/18 03:13:32;;;;;;;27.50;22.77;;;17.00;99.90;;;;;;5075678;28;20643;-81
2021/08/18 03:15:58;;;;;;;25.07;22.43;;;17.10;99.90;;;;;;5058107;28;20178;-79
2021/08/18 03:18:23;;;;;;;25.67;22.00;;;16.80;99.90;;;;;;5075727;28;20625;-81
2021/08/18 03:20:49;;;;;;;26.33;23.47;;;16.90;99.90;;;;;;5076134;28;20242;-80
2021/08/18 03:23:16;;;;;;;24.50;21.77;;;17.00;99.90;;;;;;5075677;28;20214;-79
2021/08/18 03:25:41;;;;;;;26.23;23.37;;;16.90;99.90;;;;;;5075559;28;20179;-80
2021/08/18 03:28:08;;;;;;;29.53;23.23;;;16.90;99.90;;;;;;5075738;28;20187;-80
2021/08/18 03:30:34;;;;;;;25.40;22.10;;;16.90;99.90;;;;;;5075625;28;20218;-80
2021/08/18 03:33:01;;;;;;;26.10;22.63;;;17.00;99.90;;;;;;5074344;28;20172;-80
2021/08/18 03:35:27;;;;;;;24.37;21.77;;;17.10;99.90;;;;;;5075712;28;20176;-78
2021/08/18 03:37:53;;;;;;;26.63;22.53;;;17.10;99.90;;;;;;5075568;28;20222;-80
2021/08/18 03:40:19;;;;;;;24.20;21.60;;;17.10;99.90;;;;;;5075048;28;20168;-80
2021/08/18 03:42:45;;;;;;;25.10;21.33;;;17.10;99.90;;;;;;5075291;28;20173;-79
2021/08/18 03:45:11;;;;;;;23.77;21.17;;;17.10;99.90;;;;;;5075098;28;20222;-78
2021/08/18 03:47:38;;;;;;;24.67;21.50;;;17.10;99.90;;;;;;5075344;28;20574;-78
2021/08/18 03:50:05;;;;;;;24.03;21.40;;;17.10;99.90;;;;;;5075446;28;20164;-79
2021/08/18 03:52:31;;;;;;;24.53;21.20;;;17.00;99.90;;;;;;5075194;28;20204;-80
2021/08/18 03:54:57;;;;;;;25.90;21.47;;;17.00;99.90;;;;;;5074989;28;20631;-79
2021/08/18 03:57:22;;;;;;;23.93;21.00;;;17.00;99.90;;;;;;5075210;28;20176;-79
2021/08/18 03:59:48;;;;;;;25.57;21.10;;;16.80;99.90;;;;;;5075424;28;20172;-78
2021/08/18 04:02:14;;;;;;;26.13;22.07;;;16.90;99.90;;;;;;5075216;28;20250;-79
2021/08/18 04:04:39;;;;;;;25.07;21.20;;;16.90;99.90;;;;;;5074856;28;20196;-79
2021/08/18 04:07:05;;;;;;;26.90;21.93;;;17.00;99.90;;;;;;5074898;28;20218;-78
2021/08/18 04:09:31;;;;;;;26.20;22.37;;;17.10;99.90;;;;;;5074619;28;20180;-79
2021/08/18 04:11:56;;;;;;;24.30;21.00;;;16.90;99.90;;;;;;5075019;28;20245;-79
2021/08/18 04:14:22;;;;;;;24.20;20.73;;;16.80;99.90;;;;;;5056939;28;20186;-78
2021/08/18 04:16:47;;;;;;;26.27;19.93;;;16.70;99.90;;;;;;5075062;28;20176;-78
2021/08/18 04:19:13;;;;;;;23.77;21.27;;;16.80;99.90;;;;;;5084467;28;20220;-77
2021/08/18 04:21:39;;;;;;;26.93;21.57;;;16.80;99.90;;;;;;5092568;28;20164;-76
2021/08/18 04:24:05;;;;;;;25.30;20.87;;;16.90;99.90;;;;;;5084555;28;20569;-80
2021/08/18 04:26:30;;;;;;;27.53;22.50;;;16.80;99.90;;;;;;5074579;28;20168;-80
2021/08/18 04:28:56;;;;;;;27.73;22.77;;;16.90;99.90;;;;;;5074498;28;20271;-76
2021/08/18 04:31:22;;;;;;;29.13;23.33;;;16.90;99.90;;;;;;5074591;28;20250;-76
2021/08/18 04:33:48;;;;;;;26.40;23.60;;;16.90;99.90;;;;;;5056777;28;20206;-79
2021/08/18 04:36:15;;;;;;;27.67;23.53;;;16.90;99.90;;;;;;5074616;28;20168;-77
2021/08/18 04:38:41;;;;;;;26.83;22.63;;;16.90;99.90;;;;;;5056152;28;20614;-79
2021/08/18 04:41:07;;;;;;;27.47;23.07;;;16.80;99.90;;;;;;5074502;28;20161;-79
2021/08/18 04:43:32;;;;;;;28.37;23.00;;;16.80;99.90;;;;;;5076950;28;20227;-80
2021/08/18 04:45:58;;;;;;;26.03;22.73;;;16.90;99.90;;;;;;5098345;28;20175;-77
2021/08/18 04:48:23;;;;;;;27.07;22.37;;;16.80;99.90;;;;;;5079107;28;20188;-78
2021/08/18 04:50:49;;;;;;;27.20;22.63;;;16.90;99.90;;;;;;5074572;28;20237;-79
2021/08/18 04:53:15;;;;;;;28.83;23.23;;;17.00;99.90;;;;;;5074265;28;20590;-79
2021/08/18 04:55:43;;;;;;;25.93;23.10;;;16.90;99.90;;;;;;5074588;28;20562;-80
2021/08/18 04:58:08;;;;;;;26.57;22.60;;;16.90;99.90;;;;;;5074433;28;20222;-80
2021/08/18 05:00:34;;;;;;;29.27;23.80;;;16.90;99.90;;;;;;5074097;28;20180;-79
2021/08/18 05:03:00;;;;;;;26.97;22.17;;;17.00;99.90;;;;;;5074422;28;20187;-80
2021/08/18 05:05:26;;;;;;;28.47;23.37;;;16.80;99.90;;;;;;5074851;28;20205;-78
2021/08/18 05:07:52;;;;;;;26.80;21.77;;;16.80;99.90;;;;;;5074516;28;20172;-77
2021/08/18 05:10:18;;;;;;;29.47;22.40;;;16.80;99.90;;;;;;5082256;28;20172;-77
2021/08/18 05:12:44;;;;;;;25.47;22.67;;;16.80;99.90;;;;;;5091885;28;20228;-78
2021/08/18 05:15:11;;;;;;;27.57;22.13;;;16.90;99.90;;;;;;5077877;28;20203;-79
2021/08/18 05:17:37;;;;;;;25.20;21.50;;;16.80;99.90;;;;;;5074354;28;20172;-78
2021/08/18 05:20:04;;;;;;;24.57;21.30;;;16.80;99.90;;;;;;5074714;28;20168;-80
2021/08/18 05:22:29;;;;;;;24.17;21.53;;;16.80;99.90;;;;;;5075514;28;20161;-79
2021/08/18 05:24:55;;;;;;;23.13;20.50;;;16.70;99.90;;;;;;5080504;28;20214;-78
2021/08/18 05:27:21;;;;;;;23.73;21.23;;;16.80;99.90;;;;;;5066388;28;20188;-77
2021/08/18 05:29:46;;;;;;;23.87;21.00;;;16.80;99.90;;;;;;5086444;28;20652;-80
2021/08/18 05:32:12;;;;;;;24.83;20.77;;;17.00;99.90;;;;;;5072550;28;20176;-80
2021/08/18 05:34:37;;;;;;;25.80;21.07;;;16.90;99.90;;;;;;5081159;28;20187;-80
2021/08/18 05:37:03;;;;;;;28.47;20.63;;;16.90;99.90;;;;;;5090625;28;20148;-79
2021/08/18 05:39:29;;;;;;;26.80;21.57;;;17.00;99.90;;;;;;5098425;28;20164;-80
2021/08/18 05:41:56;;;;;;;25.27;21.70;;;17.00;99.90;;;;;;5098017;28;20181;-77
2021/08/18 05:44:21;;;;;;;28.00;21.77;;;17.10;99.90;;;;;;5097884;28;20230;-77
2021/08/18 05:46:47;;;;;;;25.23;20.37;;;17.00;99.90;;;;;;5080056;28;20196;-77
2021/08/18 05:49:20;;;;;;;23.33;20.83;;;17.10;99.90;;;;;;5096853;28;20180;-76
2021/08/18 05:51:50;;;;;;;25.17;19.67;;;17.10;99.90;;;;;;5083874;28;20163;-76
2021/08/18 05:54:16;;;;;;;24.30;21.33;;;17.10;99.90;;;;;;5083432;28;20158;-75
2021/08/18 05:56:44;;;;;;;26.20;20.57;;;17.10;99.90;;;;;;5081378;28;20192;-76
2021/08/18 05:59:31;;;;;;;21.30;19.00;;;17.10;99.90;;;;;;5076383;28;20164;-76
2021/08/18 06:01:57;;;;;;;24.57;21.90;;;17.20;99.90;;;;;;5073308;28;20178;-77
2021/08/18 06:04:34;;;;;;;23.93;20.87;;;17.20;99.90;;;;;;5073731;28;20197;-76
2021/08/18 06:07:00;;;;;;;22.83;20.00;;;17.10;99.90;;;;;;5075501;28;20164;-78
2021/08/18 06:09:26;;;;;;;23.83;20.53;;;17.10;99.90;;;;;;5074763;28;20700;-78
2021/08/18 06:11:52;;;;;;;27.13;21.20;;;17.00;99.90;;;;;;5073470;28;20243;-77
2021/08/18 06:14:17;;;;;;;23.07;20.67;;;17.20;99.90;;;;;;5072850;28;20524;-76
2021/08/18 06:16:43;;;;;;;26.37;21.53;;;17.20;99.90;;;;;;5073465;28;20611;-76
2021/08/18 06:19:09;;;;;;;24.93;21.13;;;17.30;99.90;;;;;;5073137;28;20198;-75
2021/08/18 06:21:34;;;;;;;25.83;21.17;;;17.20;99.90;;;;;;5055869;28;20180;-79
2021/08/18 06:24:12;;;;;;;25.27;21.73;;;17.30;99.90;;;;;;5073688;28;20211;-77
2021/08/18 06:26:37;;;;;;;24.17;21.40;;;17.30;99.90;;;;;;5072979;28;20172;-75
2021/08/18 06:29:03;;;;;;;23.90;21.00;;;17.30;99.90;;;;;;5072798;28;20548;-78
2021/08/18 06:31:29;;;;;;;26.30;22.23;;;17.30;99.90;;;;;;5073124;28;20540;-76
2021/08/18 06:33:55;;;;;;;23.33;20.47;;;17.40;99.90;;;;;;5072931;28;20177;-76
2021/08/18 06:36:21;;;;;;;27.03;21.60;;;17.30;99.90;;;;;;5073479;28;20176;-78
2021/08/18 06:38:47;;;;;;;25.50;20.77;;;17.40;99.90;;;;;;5072771;28;20173;-75
2021/08/18 06:41:12;;;;;;;23.90;20.93;;;17.40;99.90;;;;;;5072889;28;20183;-76
2021/08/18 06:43:38;;;;;;;26.67;20.30;;;17.40;99.90;;;;;;5072741;28;20184;-77
2021/08/18 06:46:04;;;;;;;20.97;18.73;;;17.40;99.90;;;;;;5078413;28;20266;-79
2021/08/18 06:48:30;;;;;;;22.20;19.80;;;17.50;99.90;;;;;;5092529;28;20163;-80
2021/08/18 06:50:55;;;;;;;23.90;20.27;;;17.50;99.90;;;;;;5092796;28;20175;-79
2021/08/18 06:53:21;;;;;;;25.37;19.70;;;17.60;99.90;;;;;;5092459;28;20172;-78
2021/08/18 06:55:47;;;;;;;25.07;20.60;;;17.70;99.90;;;;;;5092235;28;20228;-79
2021/08/18 06:58:12;;;;;;;21.37;19.07;;;17.70;99.90;;;;;;5076284;28;20259;-79
2021/08/18 07:00:39;;;;;;;24.20;20.73;;;17.70;99.90;;;;;;5093075;28;20179;-78
2021/08/18 07:03:05;;;;;;;22.43;18.73;;;17.70;99.90;;;;;;5092845;28;20263;-78
2021/08/18 07:05:34;;;;;;;21.93;19.10;;;17.70;99.90;;;;;;5074450;28;20758;-79
2021/08/18 07:08:00;;;;;;;20.63;18.43;;;17.70;99.90;;;;;;5076580;28;20194;-79
2021/08/18 07:10:26;;;;;;;21.40;19.10;;;17.70;99.90;;;;;;5096516;28;20172;-78
2021/08/18 07:12:51;;;;;;;22.73;20.00;;;17.60;99.90;;;;;;5082618;28;20197;-79
2021/08/18 07:15:17;;;;;;;22.50;18.97;;;17.70;99.90;;;;;;5076351;28;20201;-76
2021/08/18 07:17:43;;;;;;;21.50;18.60;;;17.70;99.90;;;;;;5075867;28;20168;-76
2021/08/18 07:20:09;;;;;;;21.30;18.10;;;17.70;99.90;;;;;;5076450;28;20188;-77
2021/08/18 07:22:35;;;;;;;22.47;19.27;;;17.70;99.90;;;;;;5076502;28;20255;-76
2021/08/18 07:25:01;;;;;;;22.03;18.97;;;17.70;99.90;;;;;;5075863;28;20284;-75
2021/08/18 07:27:27;;;;;;;22.03;19.60;;;17.70;99.90;;;;;;5075519;28;20203;-75
2021/08/18 07:29:55;;;;;;;25.13;18.57;;;17.70;99.90;;;;;;5076047;28;20180;-77
2021/08/18 07:32:21;;;;;;;22.60;18.17;;;17.80;99.90;;;;;;5075719;28;20269;-75
2021/08/18 07:34:46;;;;;;;21.63;18.60;;;17.90;99.90;;;;;;5076177;28;20648;-80
2021/08/18 07:37:12;;;;;;;23.67;18.90;;;18.00;99.90;;;;;;5076490;28;20251;-80
2021/08/18 07:39:38;;;;;;;23.17;19.30;;;17.80;99.90;;;;;;5076123;28;20622;-80
2021/08/18 07:42:04;;;;;;;23.07;19.00;;;17.80;99.90;;;;;;5072935;28;20259;-80
2021/08/18 07:44:30;;;;;;;21.37;18.77;;;17.80;99.90;;;;;;5075498;28;20298;-80
2021/08/18 07:46:56;;;;;;;19.60;17.50;;;17.60;99.90;;;;;;5075482;28;20592;-76
2021/08/18 07:49:21;;;;;;;21.73;18.97;;;17.70;99.90;;;;;;5075489;28;20186;-76
2021/08/18 07:51:48;;;;;;;23.23;18.37;;;17.80;99.90;;;;;;5074928;28;20185;-79
2021/08/18 07:54:14;;;;;;;21.43;19.13;;;17.90;99.90;;;;;;5075363;28;20177;-77
2021/08/18 07:56:39;;;;;;;20.67;18.47;;;18.00;99.90;;;;;;5057373;28;20168;-78
2021/08/18 07:59:05;;;;;;;21.63;18.77;;;18.00;99.90;;;;;;5080220;28;20281;-79
2021/08/18 08:01:30;;;;;;;22.83;20.03;;;18.10;99.90;;;;;;5078702;28;20165;-79
2021/08/18 08:03:56;;;;;;;23.30;20.40;;;18.00;99.90;;;;;;5079590;28;20845;-76
2021/08/18 08:06:22;;;;;;;24.33;20.47;;;18.10;99.90;;;;;;5063763;28;20192;-76
2021/08/18 08:08:47;;;;;;;23.23;20.80;;;18.00;99.90;;;;;;5074984;28;20156;-80
2021/08/18 08:11:13;;;;;;;24.10;20.53;;;18.00;99.90;;;;;;5074774;28;20197;-80
2021/08/18 08:13:39;;;;;;;22.87;20.17;;;17.90;99.90;;;;;;5074048;28;20181;-77
2021/08/18 08:16:04;;;;;;;23.20;20.73;;;17.90;99.90;;;;;;5074986;28;20176;-79
2021/08/18 08:18:30;;;;;;;23.40;21.00;;;17.90;99.90;;;;;;5075318;28;20252;-80
2021/08/18 08:20:56;;;;;;;22.83;20.50;;;18.00;99.90;;;;;;5080272;28;20260;-80
2021/08/18 08:23:21;;;;;;;23.87;21.20;;;18.10;99.90;;;;;;5080160;28;20176;-81
2021/08/18 08:25:47;;;;;;;22.97;20.43;;;18.30;99.90;;;;;;5059581;28;20176;-80
2021/08/18 08:28:13;;;;;;;22.83;20.43;;;18.30;99.90;;;;;;5077305;28;20261;-77
2021/08/18 08:30:38;;;;;;;22.70;20.30;;;18.40;99.90;;;;;;5082721;28;20184;-78
2021/08/18 08:33:04;;;;;;;25.63;21.40;;;18.50;99.90;;;;;;5073359;28;20259;-79
2021/08/18 08:35:30;;;;;;;22.13;19.83;;;18.60;99.90;;;;;;5076131;28;20164;-79
2021/08/18 08:37:56;;;;;;;20.83;18.73;;;18.50;99.90;;;;;;5073721;28;20172;-80
2021/08/18 08:40:22;;;;;;;21.00;18.90;;;18.50;99.90;;;;;;5073845;28;20200;-76
2021/08/18 08:42:48;;;;;;;20.27;18.13;;;18.50;99.90;;;;;;5074203;28;20172;-79
2021/08/18 08:45:14;;;;;;;20.33;18.23;;;18.50;99.90;;;;;;5073306;28;20211;-80
2021/08/18 08:47:40;;;;;;;21.00;18.63;;;18.50;99.90;;;;;;5073762;28;20169;-78
2021/08/18 08:50:09;;;;;;;20.37;18.30;;;18.50;99.90;;;;;;5073864;28;20181;-80
2021/08/18 08:52:35;;;;;;;20.27;18.07;;;18.40;99.90;;;;;;5074240;28;20624;-81
2021/08/18 08:55:05;;;;;;;23.23;17.77;;;18.50;99.90;;;;;;5074288;28;20180;-81
2021/08/18 08:57:31;;;;;;;20.37;17.37;;;18.50;99.90;;;;;;5073650;28;20217;-81
2021/08/18 08:59:57;;;;;;;20.07;17.67;;;18.50;99.90;;;;;;5073808;28;20587;-81
2021/08/18 09:02:22;;;;;;;18.33;16.40;;;18.60;99.90;;;;;;5074223;28;20305;-79
2021/08/18 09:04:49;;;;;;;16.53;14.93;;;18.60;99.90;;;;;;5073477;28;20211;-80
2021/08/18 09:07:20;;;;;;;16.63;14.97;;;18.60;99.90;;;;;;5073667;28;20306;-81
2021/08/18 09:09:54;;;;;;;29.13;20.00;;;18.60;99.90;;;;;;5073687;28;20169;-79
2021/08/18 09:12:27;;;;;;;20.10;16.40;;;18.70;99.90;;;;;;5073722;28;20233;-81
2021/08/18 09:14:53;;;;;;;16.53;14.43;;;18.70;99.90;;;;;;5069671;28;20180;-78
2021/08/18 09:17:36;;;;;;;16.93;15.10;;;18.70;99.90;;;;;;5053706;28;20168;-78
2021/08/18 09:20:11;;;;;;;17.20;14.97;;;18.60;99.90;;;;;;5072238;28;20331;-80
2021/08/18 09:22:47;;;;;;;23.07;18.03;;;18.50;99.90;;;;;;5054084;28;20176;-81
2021/08/18 09:25:21;;;;;;;15.13;13.10;;;18.60;99.90;;;;;;5073362;28;20287;-79
2021/08/18 09:27:52;;;;;;;14.17;12.67;;;18.60;99.90;;;;;;5073784;28;20532;-80
2021/08/18 09:30:33;;;;;;;14.27;12.77;;;18.70;99.90;;;;;;5073004;28;20176;-80
2021/08/18 09:33:12;;;;;;;14.13;12.70;;;18.70;99.90;;;;;;5072844;28;20662;-80
2021/08/18 09:35:38;;;;;;;14.57;12.77;;;18.80;99.20;;;;;;5071412;28;20171;-81
2021/08/18 09:38:09;;;;;;;13.93;12.43;;;18.70;99.50;;;;;;5073099;28;20169;-79
2021/08/18 09:40:40;;;;;;;13.93;12.53;;;18.70;99.70;;;;;;5072123;28;20641;-78
2021/08/18 09:43:15;;;;;;;12.27;10.73;;;18.80;99.50;;;;;;5073288;28;20260;-80
2021/08/18 09:46:04;;;;;;;13.63;11.10;;;18.90;99.00;;;;;;5072411;28;20664;-77
2021/08/18 09:48:35;;;;;;;12.73;11.43;;;19.10;98.40;;;;;;5073295;28;20171;-78
2021/08/18 09:51:09;;;;;;;14.07;10.70;;;19.10;97.40;;;;;;5073285;28;20171;-77
2021/08/18 09:53:43;;;;;;;11.63;10.33;;;19.10;97.40;;;;;;5074024;28;20526;-78
2021/08/18 09:56:10;;;;;;;11.27;10.03;;;19.00;97.20;;;;;;5072665;28;20187;-78
2021/08/18 09:58:41;;;;;;;11.53;10.33;;;19.00;96.70;;;;;;5055828;28;20229;-77
2021/08/18 10:01:15;;;;;;;11.63;10.43;;;18.90;96.90;;;;;;5073085;28;20173;-81
2021/08/18 10:03:42;;;;;;;11.47;9.30;;;18.90;97.70;;;;;;5073722;28;20178;-76
2021/08/18 10:06:10;;;;;;;10.57;9.47;;;18.90;96.60;;;;;;5073148;28;20168;-80
2021/08/18 10:08:36;;;;;;;11.10;9.43;;;19.00;97.40;;;;;;5072339;28;20229;-79
2021/08/18 10:11:03;;;;;;;12.07;9.33;;;19.10;97.40;;;;;;5072869;28;20209;-79
2021/08/18 10:13:29;;;;;;;13.07;9.53;;;19.30;96.70;;;;;;5075097;28;20179;-77
2021/08/18 10:15:55;;;;;;;11.90;10.17;;;19.20;96.70;;;;;;5072963;28;20643;-78
2021/08/18 10:18:36;;;;;;;12.40;9.60;;;19.20;96.00;;;;;;5072682;28;20173;-79
2021/08/18 10:21:07;;;;;;;9.10;8.30;;;19.30;96.50;;;;;;5070009;28;20188;-78
2021/08/18 10:23:54;;;;;;;9.53;8.47;;;19.30;94.90;;;;;;5072714;28;20170;-77
2021/08/18 10:26:33;;;;;;;8.73;7.87;;;19.10;94.70;;;;;;5072972;28;20633;-79
2021/08/18 10:29:16;;;;;;;11.23;8.50;;;19.10;94.40;;;;;;5072470;28;20183;-78
2021/08/18 10:31:46;;;;;;;10.37;8.47;;;19.10;95.20;;;;;;5072877;28;20170;-78
2021/08/18 10:34:25;;;;;;;9.53;8.50;;;19.30;95.30;;;;;;5072494;28;20168;-80
2021/08/18 10:36:57;;;;;;;9.83;8.83;;;19.30;95.40;;;;;;5055058;28;20172;-80
2021/08/18 10:39:25;;;;;;;9.87;8.87;;;19.30;95.10;;;;;;5073408;28;20609;-81
2021/08/18 10:42:00;;;;;;;11.43;9.00;;;19.30;95.50;;;;;;5072732;28;20516;-79
2021/08/18 10:44:39;;;;;;;10.37;8.43;;;19.40;95.50;;;;;;5076848;28;20269;-79
2021/08/18 10:47:25;;;;;;;11.17;8.50;;;19.40;95.90;;;;;;5079142;28;20230;-79
2021/08/18 10:49:53;;;;;;;10.70;8.30;;;19.40;95.10;;;;;;5082305;28;20176;-79
2021/08/18 10:52:28;;;;;;;8.13;7.33;;;19.50;95.70;;;;;;5081601;28;20168;-79
2021/08/18 10:55:24;;;;;;;9.20;7.87;;;19.60;95.40;;;;;;5061746;28;20173;-77
2021/08/18 10:57:53;;;;;;;8.33;7.30;;;19.80;94.70;;;;;;5077171;28;20196;-78
2021/08/18 11:00:34;;;;;;;9.83;8.43;;;19.90;94.30;;;;;;5067142;28;20169;-79
2021/08/18 11:03:07;;;;;;;11.00;8.63;;;19.80;93.40;;;;;;5061608;28;20179;-78
2021/08/18 11:05:40;;;;;;;10.00;9.00;;;19.90;93.70;;;;;;5042106;28;20220;-78
2021/08/18 11:08:16;;;;;;;12.23;9.03;;;20.00;93.50;;;;;;5080513;28;20165;-80
2021/08/18 11:10:53;;;;;;;10.57;9.57;;;20.10;93.20;;;;;;5081847;28;20174;-79
2021/08/18 11:13:39;;;;;;;11.03;9.87;;;19.90;91.80;;;;;;5078609;28;20172;-77
2021/08/18 11:16:19;;;;;;;14.40;11.00;;;19.60;93.70;;;;;;5081190;28;20164;-77
2021/08/18 11:18:52;;;;;;;13.57;10.30;;;19.50;92.30;;;;;;5082486;28;20202;-78
2021/08/18 11:21:24;;;;;;;11.37;10.07;;;19.50;94.30;;;;;;5082772;28;20160;-78
2021/08/18 11:24:04;;;;;;;10.20;9.20;;;19.60;93.40;;;;;;5078585;28;20181;-78
2021/08/18 11:26:33;;;;;;;11.80;10.63;;;19.70;91.20;;;;;;5088628;28;20159;-78
2021/08/18 11:29:20;;;;;;;11.40;10.40;;;19.90;90.60;;;;;;5096527;28;20189;-78
2021/08/18 11:31:53;;;;;;;12.03;10.20;;;19.60;88.80;;;;;;5099482;28;20175;-77
2021/08/18 11:34:31;;;;;;;13.57;11.17;;;19.70;91.20;;;;;;5082105;28;20168;-78
2021/08/18 11:37:12;;;;;;;12.00;9.97;;;19.90;90.70;;;;;;5089028;28;20257;-77
2021/08/18 11:39:44;;;;;;;12.03;10.83;;;20.20;86.50;;;;;;5084437;28;20177;-77
2021/08/18 11:42:21;;;;;;;11.63;10.53;;;20.10;85.30;;;;;;5083638;28;20168;-77
2021/08/18 11:45:15;;;;;;;11.90;10.27;;;19.80;87.60;;;;;;5089637;28;20237;-76
2021/08/18 11:48:02;;;;;;;11.30;10.20;;;19.90;88.80;;;;;;5085651;28;20263;-77
2021/08/18 11:50:31;;;;;;;10.87;9.80;;;19.90;89.70;;;;;;5077439;28;20167;-78
2021/08/18 11:53:00;;;;;;;10.17;9.17;;;20.10;87.30;;;;;;5074855;28;20168;-79
2021/08/18 11:55:28;;;;;;;10.33;8.80;;;20.20;82.60;;;;;;5075211;28;20626;-79
2021/08/18 11:58:04;;;;;;;10.73;9.40;;;20.20;81.10;;;;;;5075125;28;20171;-77
2021/08/18 12:00:31;;;;;;;10.83;9.83;;;20.10;83.70;;;;;;5058323;28;20526;-76
2021/08/18 12:03:01;;;;;;;10.23;9.20;;;19.90;84.80;;;;;;5057501;28;20177;-79
2021/08/18 12:05:31;;;;;;;11.27;10.03;;;19.90;85.20;;;;;;5075647;28;20209;-79
2021/08/18 12:08:18;;;;;;;12.33;10.33;;;20.00;84.80;;;;;;5075602;28;20165;-76
2021/08/18 12:10:47;;;;;;;11.13;10.03;;;19.90;85.40;;;;;;5080921;28;20176;-76
2021/08/18 12:13:18;;;;;;;10.90;9.73;;;19.80;86.20;;;;;;5094620;28;20231;-75
2021/08/18 12:15:50;;;;;;;10.00;9.00;;;19.80;89.10;;;;;;5090479;28;20252;-77
2021/08/18 12:18:35;;;;;;;9.80;8.90;;;19.90;85.10;;;;;;5078737;28;20299;-78
2021/08/18 12:21:25;;;;;;;9.97;8.80;;;19.90;87.00;;;;;;5075257;28;20164;-76
2021/08/18 12:23:53;;;;;;;10.63;9.47;;;19.90;88.80;;;;;;5074424;28;20215;-76
2021/08/18 12:26:28;;;;;;;9.40;8.50;;;19.90;90.20;;;;;;5074867;28;20177;-80
2021/08/18 12:28:56;;;;;;;9.73;8.60;;;20.00;89.00;;;;;;5074997;28;20271;-77
2021/08/18 12:31:22;;;;;;;9.73;8.83;;;20.10;88.20;;;;;;5056986;28;20176;-77
2021/08/18 12:34:08;;;;;;;9.70;8.77;;;20.00;88.20;;;;;;5073796;28;20256;-78
2021/08/18 12:36:34;;;;;;;9.50;8.50;;;20.20;85.50;;;;;;5074449;28;20641;-79